sensor_id;sensor_type;location;lat;lon;timestamp;P1;durP1;ratioP1;P2;durP2;ratioP2
20179;SDS011;10249;48.900;9.090;2024-03-22T00:02:13;6.70;;;6.50;;
20179;SDS011;10249;48.900;9.090;2024-03-22T00:04:39;6.90;;;6.70;;
20179;SDS011;10249;48.900;9.090;2024-03-22T00:07:08;6.90;;;6.70;;
20179;SDS011;10249;48.900;9.090;2024-03-22T00:09:34;7.00;;;6.80;;
20179;SDS011;10249;48.900;9.090;2024-03-22T00:12:01;7.20;;;7.00;;
20179;SDS011;10249;48.900;9.090;2024-03-22T00:14:29;7.07;;;6.87;;
20179;SDS011;10249;48.900;9.090;2024-03-22T00:16:56;6.90;;;6.70;;
20179;SDS011;10249;48.900;9.090;2024-03-22T00:19:22;6.83;;;6.63;;
20179;SDS011;10249;48.900;9.090;2024-03-22T00:21:49;6.83;;;6.63;;
20179;SDS011;10249;48.900;9.090;2024-03-22T00:24:17;6.97;;;6.77;;
20179;SDS011;10249;48.900;9.090;2024-03-22T00:26:44;6.67;;;6.47;;
20179;SDS011;10249;48.900;9.090;2024-03-22T00:29:10;6.90;;;6.70;;
20179;SDS011;10249;48.900;9.090;2024-03-22T00:31:38;7.23;;;7.03;;
20179;SDS011;10249;48.900;9.090;2024-03-22T00:34:04;6.60;;;6.40;;
20179;SDS011;10249;48.900;9.090;2024-03-22T00:36:31;6.97;;;6.77;;
20179;SDS011;10249;48.900;9.090;2024-03-22T00:38:57;6.80;;;6.60;;
20179;SDS011;10249;48.900;9.090;2024-03-22T00:41:25;6.77;;;6.57;;
20179;SDS011;10249;48.900;9.090;2024-03-22T00:43:51;6.80;;;6.60;;
20179;SDS011;10249;48.900;9.090;2024-03-22T00:46:18;6.57;;;6.37;;
20179;SDS011;10249;48.900;9.090;2024-03-22T00:48:46;6.50;;;6.30;;
20179;SDS011;10249;48.900;9.090;2024-03-22T00:51:12;6.73;;;6.53;;
20179;SDS011;10249;48.900;9.090;2024-03-22T00:53:39;6.93;;;6.73;;
20179;SDS011;10249;48.900;9.090;2024-03-22T00:56:05;7.10;;;6.90;;
20179;SDS011;10249;48.900;9.090;2024-03-22T00:58:34;7.20;;;7.00;;
20179;SDS011;10249;48.900;9.090;2024-03-22T01:01:00;7.07;;;6.87;;
20179;SDS011;10249;48.900;9.090;2024-03-22T01:03:27;7.10;;;6.90;;
20179;SDS011;10249;48.900;9.090;2024-03-22T01:05:53;6.90;;;6.70;;
20179;SDS011;10249;48.900;9.090;2024-03-22T01:08:22;7.20;;;7.00;;
20179;SDS011;10249;48.900;9.090;2024-03-22T01:10:48;7.10;;;6.90;;
20179;SDS011;10249;48.900;9.090;2024-03-22T01:13:16;7.10;;;6.90;;
20179;SDS011;10249;48.900;9.090;2024-03-22T01:15:43;7.27;;;7.07;;
20179;SDS011;10249;48.900;9.090;2024-03-22T01:18:11;7.20;;;7.00;;
20179;SDS011;10249;48.900;9.090;2024-03-22T01:20:37;7.30;;;7.10;;
20179;SDS011;10249;48.900;9.090;2024-03-22T01:23:04;7.50;;;7.30;;
20179;SDS011;10249;48.900;9.090;2024-03-22T01:25:30;7.20;;;7.00;;
20179;SDS011;10249;48.900;9.090;2024-03-22T01:27:58;7.07;;;6.87;;
20179;SDS011;10249;48.900;9.090;2024-03-22T01:30:24;6.90;;;6.70;;
20179;SDS011;10249;48.900;9.090;2024-03-22T01:32:55;7.30;;;7.10;;
20179;SDS011;10249;48.900;9.090;2024-03-22T01:35:21;6.90;;;6.70;;
20179;SDS011;10249;48.900;9.090;2024-03-22T01:37:48;7.00;;;6.80;;
20179;SDS011;10249;48.900;9.090;2024-03-22T01:40:14;6.90;;;6.70;;
20179;SDS011;10249;48.900;9.090;2024-03-22T01:42:41;6.90;;;6.70;;
20179;SDS011;10249;48.900;9.090;2024-03-22T01:45:08;7.30;;;7.10;;
20179;SDS011;10249;48.900;9.090;2024-03-22T01:47:35;7.30;;;7.10;;
20179;SDS011;10249;48.900;9.090;2024-03-22T01:50:03;6.90;;;6.70;;
20179;SDS011;10249;48.900;9.090;2024-03-22T01:52:31;6.90;;;6.70;;
20179;SDS011;10249;48.900;9.090;2024-03-22T01:54:57;7.30;;;7.10;;
20179;SDS011;10249;48.900;9.090;2024-03-22T01:57:24;7.30;;;7.10;;
20179;SDS011;10249;48.900;9.090;2024-03-22T01:59:51;7.13;;;6.93;;
20179;SDS011;10249;48.900;9.090;2024-03-22T02:02:21;7.20;;;7.00;;
20179;SDS011;10249;48.900;9.090;2024-03-22T02:04:50;6.90;;;6.70;;
20179;SDS011;10249;48.900;9.090;2024-03-22T02:07:18;7.20;;;7.00;;
20179;SDS011;10249;48.900;9.090;2024-03-22T02:09:44;7.20;;;7.00;;
20179;SDS011;10249;48.900;9.090;2024-03-22T02:12:11;7.10;;;6.90;;
20179;SDS011;10249;48.900;9.090;2024-03-22T02:14:38;7.03;;;6.83;;
20179;SDS011;10249;48.900;9.090;2024-03-22T02:17:05;7.10;;;6.90;;
20179;SDS011;10249;48.900;9.090;2024-03-22T02:19:31;7.10;;;6.90;;
20179;SDS011;10249;48.900;9.090;2024-03-22T02:21:58;6.73;;;6.53;;
20179;SDS011;10249;48.900;9.090;2024-03-22T02:24:26;7.93;;;7.73;;
20179;SDS011;10249;48.900;9.090;2024-03-22T02:26:53;6.73;;;6.53;;
20179;SDS011;10249;48.900;9.090;2024-03-22T02:29:19;7.00;;;6.80;;
20179;SDS011;10249;48.900;9.090;2024-03-22T02:31:47;6.50;;;6.30;;
20179;SDS011;10249;48.900;9.090;2024-03-22T02:34:13;7.00;;;6.80;;
20179;SDS011;10249;48.900;9.090;2024-03-22T02:36:40;7.40;;;7.20;;
20179;SDS011;10249;48.900;9.090;2024-03-22T02:39:06;6.93;;;6.73;;
20179;SDS011;10249;48.900;9.090;2024-03-22T02:41:35;7.07;;;6.87;;
20179;SDS011;10249;48.900;9.090;2024-03-22T02:44:01;6.70;;;6.50;;
20179;SDS011;10249;48.900;9.090;2024-03-22T02:46:28;6.50;;;6.30;;
20179;SDS011;10249;48.900;9.090;2024-03-22T02:48:54;6.80;;;6.60;;
20179;SDS011;10249;48.900;9.090;2024-03-22T02:51:21;7.30;;;7.10;;
20179;SDS011;10249;48.900;9.090;2024-03-22T02:53:47;7.50;;;7.30;;
20179;SDS011;10249;48.900;9.090;2024-03-22T02:56:15;7.10;;;6.90;;
20179;SDS011;10249;48.900;9.090;2024-03-22T02:58:42;7.10;;;6.90;;
20179;SDS011;10249;48.900;9.090;2024-03-22T03:01:09;7.30;;;7.10;;
20179;SDS011;10249;48.900;9.090;2024-03-22T03:03:35;7.27;;;7.07;;
20179;SDS011;10249;48.900;9.090;2024-03-22T03:06:03;7.17;;;6.97;;
20179;SDS011;10249;48.900;9.090;2024-03-22T03:08:29;7.30;;;7.10;;
20179;SDS011;10249;48.900;9.090;2024-03-22T03:10:56;7.37;;;7.17;;
20179;SDS011;10249;48.900;9.090;2024-03-22T03:13:22;7.10;;;6.90;;
20179;SDS011;10249;48.900;9.090;2024-03-22T03:15:51;6.93;;;6.73;;
20179;SDS011;10249;48.900;9.090;2024-03-22T03:18:17;6.97;;;6.77;;
20179;SDS011;10249;48.900;9.090;2024-03-22T03:20:44;7.40;;;7.20;;
20179;SDS011;10249;48.900;9.090;2024-03-22T03:23:10;7.07;;;6.87;;
20179;SDS011;10249;48.900;9.090;2024-03-22T03:25:37;7.10;;;6.90;;
20179;SDS011;10249;48.900;9.090;2024-03-22T03:28:03;7.77;;;7.57;;
20179;SDS011;10249;48.900;9.090;2024-03-22T03:30:32;7.37;;;7.17;;
20179;SDS011;10249;48.900;9.090;2024-03-22T03:33:00;7.03;;;6.83;;
20179;SDS011;10249;48.900;9.090;2024-03-22T03:35:27;7.10;;;6.90;;
20179;SDS011;10249;48.900;9.090;2024-03-22T03:37:54;7.30;;;7.10;;
20179;SDS011;10249;48.900;9.090;2024-03-22T03:40:21;7.40;;;7.20;;
20179;SDS011;10249;48.900;9.090;2024-03-22T03:42:49;7.00;;;6.80;;
20179;SDS011;10249;48.900;9.090;2024-03-22T03:45:16;7.30;;;7.10;;
20179;SDS011;10249;48.900;9.090;2024-03-22T03:47:42;7.40;;;7.20;;
20179;SDS011;10249;48.900;9.090;2024-03-22T03:50:11;7.27;;;7.07;;
20179;SDS011;10249;48.900;9.090;2024-03-22T03:52:38;7.37;;;7.17;;
20179;SDS011;10249;48.900;9.090;2024-03-22T03:55:05;7.70;;;7.50;;
20179;SDS011;10249;48.900;9.090;2024-03-22T03:57:31;7.90;;;7.70;;
20179;SDS011;10249;48.900;9.090;2024-03-22T03:59:58;8.13;;;7.87;;
20179;SDS011;10249;48.900;9.090;2024-03-22T04:02:24;7.60;;;7.40;;
20179;SDS011;10249;48.900;9.090;2024-03-22T04:04:52;7.47;;;7.27;;
20179;SDS011;10249;48.900;9.090;2024-03-22T04:07:19;7.77;;;7.57;;
20179;SDS011;10249;48.900;9.090;2024-03-22T04:09:46;7.70;;;7.50;;
20179;SDS011;10249;48.900;9.090;2024-03-22T04:12:12;7.77;;;7.57;;
20179;SDS011;10249;48.900;9.090;2024-03-22T04:14:39;7.93;;;7.73;;
20179;SDS011;10249;48.900;9.090;2024-03-22T04:17:06;8.10;;;7.90;;
20179;SDS011;10249;48.900;9.090;2024-03-22T04:19:33;8.60;;;8.30;;
20179;SDS011;10249;48.900;9.090;2024-03-22T04:21:59;8.20;;;7.90;;
20179;SDS011;10249;48.900;9.090;2024-03-22T04:24:28;8.47;;;8.17;;
20179;SDS011;10249;48.900;9.090;2024-03-22T04:26:54;7.67;;;7.47;;
20179;SDS011;10249;48.900;9.090;2024-03-22T04:29:21;7.67;;;7.47;;
20179;SDS011;10249;48.900;9.090;2024-03-22T04:31:47;7.70;;;7.50;;
20179;SDS011;10249;48.900;9.090;2024-03-22T04:34:14;8.00;;;7.80;;
20179;SDS011;10249;48.900;9.090;2024-03-22T04:36:40;7.90;;;7.70;;
20179;SDS011;10249;48.900;9.090;2024-03-22T04:39:08;7.77;;;7.57;;
20179;SDS011;10249;48.900;9.090;2024-03-22T04:41:38;7.77;;;7.57;;
20179;SDS011;10249;48.900;9.090;2024-03-22T04:44:05;7.73;;;7.53;;
20179;SDS011;10249;48.900;9.090;2024-03-22T04:46:31;7.50;;;7.30;;
20179;SDS011;10249;48.900;9.090;2024-03-22T04:48:59;7.23;;;7.03;;
20179;SDS011;10249;48.900;9.090;2024-03-22T04:51:25;7.47;;;7.27;;
20179;SDS011;10249;48.900;9.090;2024-03-22T04:53:52;7.77;;;7.57;;
20179;SDS011;10249;48.900;9.090;2024-03-22T04:56:18;7.40;;;7.20;;
20179;SDS011;10249;48.900;9.090;2024-03-22T04:58:46;7.40;;;7.20;;
20179;SDS011;10249;48.900;9.090;2024-03-22T05:01:12;7.70;;;7.50;;
20179;SDS011;10249;48.900;9.090;2024-03-22T05:03:40;7.70;;;7.50;;
20179;SDS011;10249;48.900;9.090;2024-03-22T05:06:06;7.70;;;7.50;;
20179;SDS011;10249;48.900;9.090;2024-03-22T05:08:33;7.30;;;7.10;;
20179;SDS011;10249;48.900;9.090;2024-03-22T05:10:59;7.70;;;7.50;;
20179;SDS011;10249;48.900;9.090;2024-03-22T05:13:26;8.07;;;7.83;;
20179;SDS011;10249;48.900;9.090;2024-03-22T05:15:54;7.40;;;7.20;;
20179;SDS011;10249;48.900;9.090;2024-03-22T05:18:22;7.50;;;7.30;;
20179;SDS011;10249;48.900;9.090;2024-03-22T05:20:48;7.60;;;7.40;;
20179;SDS011;10249;48.900;9.090;2024-03-22T05:23:15;7.17;;;6.97;;
20179;SDS011;10249;48.900;9.090;2024-03-22T05:25:41;6.73;;;6.53;;
20179;SDS011;10249;48.900;9.090;2024-03-22T05:28:08;6.50;;;6.30;;
20179;SDS011;10249;48.900;9.090;2024-03-22T05:30:35;7.00;;;6.80;;
20179;SDS011;10249;48.900;9.090;2024-03-22T05:33:03;6.97;;;6.77;;
20179;SDS011;10249;48.900;9.090;2024-03-22T05:35:29;7.00;;;6.80;;
20179;SDS011;10249;48.900;9.090;2024-03-22T05:37:57;6.90;;;6.70;;
20179;SDS011;10249;48.900;9.090;2024-03-22T05:40:23;7.20;;;7.00;;
20179;SDS011;10249;48.900;9.090;2024-03-22T05:42:50;6.77;;;6.57;;
20179;SDS011;10249;48.900;9.090;2024-03-22T05:45:16;6.50;;;6.30;;
20179;SDS011;10249;48.900;9.090;2024-03-22T05:47:44;7.13;;;6.93;;
20179;SDS011;10249;48.900;9.090;2024-03-22T05:50:13;6.50;;;6.30;;
20179;SDS011;10249;48.900;9.090;2024-03-22T05:52:40;6.50;;;6.30;;
20179;SDS011;10249;48.900;9.090;2024-03-22T05:55:07;6.40;;;6.20;;
20179;SDS011;10249;48.900;9.090;2024-03-22T05:57:34;6.80;;;6.60;;
20179;SDS011;10249;48.900;9.090;2024-03-22T06:00:00;7.20;;;7.00;;
20179;SDS011;10249;48.900;9.090;2024-03-22T06:02:28;6.83;;;6.63;;
20179;SDS011;10249;48.900;9.090;2024-03-22T06:04:54;7.40;;;7.20;;
20179;SDS011;10249;48.900;9.090;2024-03-22T06:07:22;7.50;;;7.30;;
20179;SDS011;10249;48.900;9.090;2024-03-22T06:09:50;7.30;;;7.10;;
20179;SDS011;10249;48.900;9.090;2024-03-22T06:12:17;7.20;;;7.00;;
20179;SDS011;10249;48.900;9.090;2024-03-22T06:14:47;7.30;;;7.10;;
20179;SDS011;10249;48.900;9.090;2024-03-22T06:17:13;7.50;;;7.30;;
20179;SDS011;10249;48.900;9.090;2024-03-22T06:19:41;7.27;;;7.07;;
20179;SDS011;10249;48.900;9.090;2024-03-22T06:22:07;7.00;;;6.80;;
20179;SDS011;10249;48.900;9.090;2024-03-22T06:24:35;7.73;;;7.53;;
20179;SDS011;10249;48.900;9.090;2024-03-22T06:27:02;7.73;;;7.53;;
20179;SDS011;10249;48.900;9.090;2024-03-22T06:29:30;8.00;;;7.80;;
20179;SDS011;10249;48.900;9.090;2024-03-22T06:31:56;7.97;;;7.77;;
20179;SDS011;10249;48.900;9.090;2024-03-22T06:34:23;8.50;;;8.20;;
20179;SDS011;10249;48.900;9.090;2024-03-22T06:36:49;8.30;;;8.00;;
20179;SDS011;10249;48.900;9.090;2024-03-22T06:39:16;8.40;;;8.10;;
20179;SDS011;10249;48.900;9.090;2024-03-22T06:41:44;7.90;;;7.70;;
20179;SDS011;10249;48.900;9.090;2024-03-22T06:44:11;8.40;;;8.10;;
20179;SDS011;10249;48.900;9.090;2024-03-22T06:46:39;8.40;;;8.10;;
20179;SDS011;10249;48.900;9.090;2024-03-22T06:49:06;8.63;;;8.33;;
20179;SDS011;10249;48.900;9.090;2024-03-22T06:51:32;8.50;;;8.20;;
20179;SDS011;10249;48.900;9.090;2024-03-22T06:53:59;9.00;;;8.70;;
20179;SDS011;10249;48.900;9.090;2024-03-22T06:56:25;9.00;;;8.70;;
20179;SDS011;10249;48.900;9.090;2024-03-22T06:58:53;8.40;;;8.10;;
20179;SDS011;10249;48.900;9.090;2024-03-22T07:01:20;8.40;;;8.10;;
20179;SDS011;10249;48.900;9.090;2024-03-22T07:03:47;8.20;;;7.90;;
20179;SDS011;10249;48.900;9.090;2024-03-22T07:06:13;7.80;;;7.60;;
20179;SDS011;10249;48.900;9.090;2024-03-22T07:08:40;8.33;;;8.03;;
20179;SDS011;10249;48.900;9.090;2024-03-22T07:11:07;8.27;;;7.97;;
20179;SDS011;10249;48.900;9.090;2024-03-22T07:13:34;8.60;;;8.30;;
20179;SDS011;10249;48.900;9.090;2024-03-22T07:16:01;8.40;;;8.10;;
20179;SDS011;10249;48.900;9.090;2024-03-22T07:18:29;8.40;;;8.10;;
20179;SDS011;10249;48.900;9.090;2024-03-22T07:20:55;8.67;;;8.37;;
20179;SDS011;10249;48.900;9.090;2024-03-22T07:23:26;8.77;;;8.47;;
20179;SDS011;10249;48.900;9.090;2024-03-22T07:25:52;9.00;;;8.70;;
20179;SDS011;10249;48.900;9.090;2024-03-22T07:28:19;9.33;;;9.03;;
20179;SDS011;10249;48.900;9.090;2024-03-22T07:30:46;9.50;;;9.20;;
20179;SDS011;10249;48.900;9.090;2024-03-22T07:33:15;10.00;;;9.70;;
20179;SDS011;10249;48.900;9.090;2024-03-22T07:35:42;9.80;;;9.50;;
20179;SDS011;10249;48.900;9.090;2024-03-22T07:38:10;9.90;;;9.60;;
20179;SDS011;10249;48.900;9.090;2024-03-22T07:40:36;10.10;;;9.80;;
20179;SDS011;10249;48.900;9.090;2024-03-22T07:43:03;10.27;;;9.87;;
20179;SDS011;10249;48.900;9.090;2024-03-22T07:45:31;10.10;;;9.77;;
20179;SDS011;10249;48.900;9.090;2024-03-22T07:47:59;9.90;;;9.60;;
20179;SDS011;10249;48.900;9.090;2024-03-22T07:50:26;9.93;;;9.63;;
20179;SDS011;10249;48.900;9.090;2024-03-22T07:52:53;10.60;;;10.20;;
20179;SDS011;10249;48.900;9.090;2024-03-22T07:55:20;10.60;;;10.20;;
20179;SDS011;10249;48.900;9.090;2024-03-22T07:57:47;9.90;;;9.60;;
20179;SDS011;10249;48.900;9.090;2024-03-22T08:00:13;11.23;;;10.63;;
20179;SDS011;10249;48.900;9.090;2024-03-22T08:02:41;9.60;;;9.30;;
20179;SDS011;10249;48.900;9.090;2024-03-22T08:05:07;9.43;;;9.13;;
20179;SDS011;10249;48.900;9.090;2024-03-22T08:07:35;9.90;;;9.60;;
20179;SDS011;10249;48.900;9.090;2024-03-22T08:10:02;10.70;;;10.30;;
20179;SDS011;10249;48.900;9.090;2024-03-22T08:12:29;10.40;;;10.00;;
20179;SDS011;10249;48.900;9.090;2024-03-22T08:14:55;10.80;;;10.40;;
20179;SDS011;10249;48.900;9.090;2024-03-22T08:17:22;11.00;;;10.60;;
20179;SDS011;10249;48.900;9.090;2024-03-22T08:19:49;10.93;;;10.53;;
20179;SDS011;10249;48.900;9.090;2024-03-22T08:22:16;11.10;;;10.70;;
20179;SDS011;10249;48.900;9.090;2024-03-22T08:24:43;10.60;;;10.20;;
20179;SDS011;10249;48.900;9.090;2024-03-22T08:27:10;10.80;;;10.40;;
20179;SDS011;10249;48.900;9.090;2024-03-22T08:29:37;10.67;;;10.27;;
20179;SDS011;10249;48.900;9.090;2024-03-22T08:32:04;10.50;;;10.10;;
20179;SDS011;10249;48.900;9.090;2024-03-22T08:34:30;10.50;;;10.10;;
20179;SDS011;10249;48.900;9.090;2024-03-22T08:36:58;10.83;;;10.43;;
20179;SDS011;10249;48.900;9.090;2024-03-22T08:39:25;11.10;;;10.70;;
20179;SDS011;10249;48.900;9.090;2024-03-22T08:41:54;11.30;;;10.90;;
20179;SDS011;10249;48.900;9.090;2024-03-22T08:44:21;11.40;;;11.00;;
20179;SDS011;10249;48.900;9.090;2024-03-22T08:46:48;11.83;;;11.33;;
20179;SDS011;10249;48.900;9.090;2024-03-22T08:49:14;12.10;;;11.60;;
20179;SDS011;10249;48.900;9.090;2024-03-22T08:51:44;12.20;;;11.70;;
20179;SDS011;10249;48.900;9.090;2024-03-22T08:54:11;12.40;;;11.90;;
20179;SDS011;10249;48.900;9.090;2024-03-22T08:56:38;12.23;;;11.73;;
20179;SDS011;10249;48.900;9.090;2024-03-22T08:59:05;12.10;;;11.60;;
20179;SDS011;10249;48.900;9.090;2024-03-22T09:01:32;11.80;;;11.30;;
20179;SDS011;10249;48.900;9.090;2024-03-22T09:03:58;11.50;;;11.10;;
20179;SDS011;10249;48.900;9.090;2024-03-22T09:06:25;12.10;;;11.60;;
20179;SDS011;10249;48.900;9.090;2024-03-22T09:08:52;12.37;;;11.87;;
20179;SDS011;10249;48.900;9.090;2024-03-22T09:11:22;12.67;;;12.17;;
20179;SDS011;10249;48.900;9.090;2024-03-22T09:13:50;13.37;;;12.77;;
20179;SDS011;10249;48.900;9.090;2024-03-22T09:16:19;13.70;;;13.10;;
20179;SDS011;10249;48.900;9.090;2024-03-22T09:18:45;13.50;;;12.90;;
20179;SDS011;10249;48.900;9.090;2024-03-22T09:21:13;13.70;;;13.10;;
20179;SDS011;10249;48.900;9.090;2024-03-22T09:23:39;13.70;;;13.10;;
20179;SDS011;10249;48.900;9.090;2024-03-22T09:26:06;13.60;;;13.00;;
20179;SDS011;10249;48.900;9.090;2024-03-22T09:28:32;13.10;;;12.50;;
20179;SDS011;10249;48.900;9.090;2024-03-22T09:31:03;13.53;;;12.93;;
20179;SDS011;10249;48.900;9.090;2024-03-22T09:33:30;14.73;;;14.03;;
20179;SDS011;10249;48.900;9.090;2024-03-22T09:35:57;14.10;;;13.50;;
20179;SDS011;10249;48.900;9.090;2024-03-22T09:38:24;14.20;;;13.60;;
20179;SDS011;10249;48.900;9.090;2024-03-22T09:40:51;14.50;;;13.80;;
20179;SDS011;10249;48.900;9.090;2024-03-22T09:43:19;14.07;;;13.47;;
20179;SDS011;10249;48.900;9.090;2024-03-22T09:45:47;13.73;;;13.13;;
20179;SDS011;10249;48.900;9.090;2024-03-22T09:48:14;14.27;;;13.57;;
20179;SDS011;10249;48.900;9.090;2024-03-22T09:50:42;13.90;;;13.30;;
20179;SDS011;10249;48.900;9.090;2024-03-22T09:53:08;14.40;;;13.70;;
20179;SDS011;10249;48.900;9.090;2024-03-22T09:55:36;15.53;;;14.63;;
20179;SDS011;10249;48.900;9.090;2024-03-22T09:58:04;14.30;;;13.60;;
20179;SDS011;10249;48.900;9.090;2024-03-22T10:00:31;14.17;;;13.47;;
20179;SDS011;10249;48.900;9.090;2024-03-22T10:02:57;14.90;;;14.20;;
20179;SDS011;10249;48.900;9.090;2024-03-22T10:05:25;14.40;;;13.70;;
20179;SDS011;10249;48.900;9.090;2024-03-22T10:07:52;14.60;;;13.90;;
20179;SDS011;10249;48.900;9.090;2024-03-22T10:10:20;14.77;;;14.07;;
20179;SDS011;10249;48.900;9.090;2024-03-22T10:12:47;15.00;;;14.30;;
20179;SDS011;10249;48.900;9.090;2024-03-22T10:15:14;14.50;;;13.80;;
20179;SDS011;10249;48.900;9.090;2024-03-22T10:17:41;14.20;;;13.50;;
20179;SDS011;10249;48.900;9.090;2024-03-22T10:20:12;15.00;;;14.20;;
20179;SDS011;10249;48.900;9.090;2024-03-22T10:22:41;15.90;;;15.10;;
20179;SDS011;10249;48.900;9.090;2024-03-22T10:25:10;15.50;;;14.70;;
20179;SDS011;10249;48.900;9.090;2024-03-22T10:27:38;15.20;;;14.40;;
20179;SDS011;10249;48.900;9.090;2024-03-22T10:30:06;15.27;;;14.47;;
20179;SDS011;10249;48.900;9.090;2024-03-22T10:32:33;15.53;;;14.73;;
20179;SDS011;10249;48.900;9.090;2024-03-22T10:35:01;15.40;;;14.60;;
20179;SDS011;10249;48.900;9.090;2024-03-22T10:37:30;15.10;;;14.30;;
20179;SDS011;10249;48.900;9.090;2024-03-22T10:39:58;15.60;;;14.80;;
20179;SDS011;10249;48.900;9.090;2024-03-22T10:42:28;16.00;;;15.20;;
20179;SDS011;10249;48.900;9.090;2024-03-22T10:44:55;16.40;;;15.60;;
20179;SDS011;10249;48.900;9.090;2024-03-22T10:47:21;15.90;;;15.10;;
20179;SDS011;10249;48.900;9.090;2024-03-22T10:49:50;16.13;;;15.33;;
20179;SDS011;10249;48.900;9.090;2024-03-22T10:52:22;16.67;;;15.77;;
20179;SDS011;10249;48.900;9.090;2024-03-22T10:54:49;15.90;;;15.10;;
20179;SDS011;10249;48.900;9.090;2024-03-22T10:57:15;16.13;;;15.33;;
20179;SDS011;10249;48.900;9.090;2024-03-22T10:59:45;15.90;;;15.10;;
20179;SDS011;10249;48.900;9.090;2024-03-22T11:02:13;16.27;;;15.43;;
20179;SDS011;10249;48.900;9.090;2024-03-22T11:04:39;16.10;;;15.30;;
20179;SDS011;10249;48.900;9.090;2024-03-22T11:07:06;16.50;;;15.60;;
20179;SDS011;10249;48.900;9.090;2024-03-22T11:09:33;15.87;;;15.07;;
20179;SDS011;10249;48.900;9.090;2024-03-22T11:12:00;16.20;;;15.30;;
20179;SDS011;10249;48.900;9.090;2024-03-22T11:14:26;16.50;;;15.60;;
20179;SDS011;10249;48.900;9.090;2024-03-22T11:16:55;16.50;;;15.60;;
20179;SDS011;10249;48.900;9.090;2024-03-22T11:19:21;30.17;;;17.50;;
20179;SDS011;10249;48.900;9.090;2024-03-22T11:21:48;17.60;;;16.60;;
20179;SDS011;10249;48.900;9.090;2024-03-22T11:24:15;16.93;;;16.03;;
20179;SDS011;10249;48.900;9.090;2024-03-22T11:26:42;17.17;;;16.27;;
20179;SDS011;10249;48.900;9.090;2024-03-22T11:29:09;17.33;;;16.43;;
20179;SDS011;10249;48.900;9.090;2024-03-22T11:31:36;16.87;;;15.97;;
20179;SDS011;10249;48.900;9.090;2024-03-22T11:34:04;17.13;;;16.23;;
20179;SDS011;10249;48.900;9.090;2024-03-22T11:36:31;17.23;;;16.33;;
20179;SDS011;10249;48.900;9.090;2024-03-22T11:38:57;16.67;;;15.77;;
20179;SDS011;10249;48.900;9.090;2024-03-22T11:41:26;16.63;;;15.73;;
20179;SDS011;10249;48.900;9.090;2024-03-22T11:43:53;17.10;;;16.20;;
20179;SDS011;10249;48.900;9.090;2024-03-22T11:46:21;16.97;;;15.97;;
20179;SDS011;10249;48.900;9.090;2024-03-22T11:48:50;17.80;;;16.73;;
20179;SDS011;10249;48.900;9.090;2024-03-22T11:51:19;16.00;;;15.10;;
20179;SDS011;10249;48.900;9.090;2024-03-22T11:53:49;17.00;;;16.10;;
20179;SDS011;10249;48.900;9.090;2024-03-22T11:56:17;17.50;;;16.50;;
20179;SDS011;10249;48.900;9.090;2024-03-22T11:58:45;18.37;;;16.87;;
20179;SDS011;10249;48.900;9.090;2024-03-22T12:01:12;16.77;;;15.83;;
20179;SDS011;10249;48.900;9.090;2024-03-22T12:03:38;17.60;;;16.50;;
20179;SDS011;10249;48.900;9.090;2024-03-22T12:06:05;17.47;;;16.47;;
20179;SDS011;10249;48.900;9.090;2024-03-22T12:08:33;16.57;;;15.67;;
20179;SDS011;10249;48.900;9.090;2024-03-22T12:11:00;16.40;;;15.50;;
20179;SDS011;10249;48.900;9.090;2024-03-22T12:13:26;17.00;;;16.10;;
20179;SDS011;10249;48.900;9.090;2024-03-22T12:15:53;16.77;;;15.87;;
20179;SDS011;10249;48.900;9.090;2024-03-22T12:18:19;17.23;;;16.17;;
20179;SDS011;10249;48.900;9.090;2024-03-22T12:20:46;16.30;;;15.40;;
20179;SDS011;10249;48.900;9.090;2024-03-22T12:23:13;16.93;;;16.03;;
20179;SDS011;10249;48.900;9.090;2024-03-22T12:25:41;16.90;;;16.00;;
20179;SDS011;10249;48.900;9.090;2024-03-22T12:28:07;16.37;;;15.53;;
20179;SDS011;10249;48.900;9.090;2024-03-22T12:30:34;16.80;;;15.90;;
20179;SDS011;10249;48.900;9.090;2024-03-22T12:33:00;16.13;;;15.23;;
20179;SDS011;10249;48.900;9.090;2024-03-22T12:35:28;16.70;;;15.80;;
20179;SDS011;10249;48.900;9.090;2024-03-22T12:37:57;16.70;;;15.80;;
20179;SDS011;10249;48.900;9.090;2024-03-22T12:40:25;16.70;;;15.80;;
20179;SDS011;10249;48.900;9.090;2024-03-22T12:42:52;17.30;;;16.30;;
20179;SDS011;10249;48.900;9.090;2024-03-22T12:45:19;17.43;;;16.33;;
20179;SDS011;10249;48.900;9.090;2024-03-22T12:47:46;16.60;;;15.70;;
20179;SDS011;10249;48.900;9.090;2024-03-22T12:50:13;16.60;;;15.70;;
20179;SDS011;10249;48.900;9.090;2024-03-22T12:52:40;16.70;;;15.80;;
20179;SDS011;10249;48.900;9.090;2024-03-22T12:55:09;17.20;;;16.20;;
20179;SDS011;10249;48.900;9.090;2024-03-22T12:57:35;16.70;;;15.80;;
20179;SDS011;10249;48.900;9.090;2024-03-22T13:00:05;16.60;;;15.70;;
20179;SDS011;10249;48.900;9.090;2024-03-22T13:02:37;16.83;;;15.93;;
20179;SDS011;10249;48.900;9.090;2024-03-22T13:05:04;16.97;;;15.97;;
20179;SDS011;10249;48.900;9.090;2024-03-22T13:07:31;16.73;;;15.83;;
20179;SDS011;10249;48.900;9.090;2024-03-22T13:09:58;16.70;;;15.80;;
20179;SDS011;10249;48.900;9.090;2024-03-22T13:12:25;16.50;;;15.60;;
20179;SDS011;10249;48.900;9.090;2024-03-22T13:14:52;16.47;;;15.57;;
20179;SDS011;10249;48.900;9.090;2024-03-22T13:17:19;17.27;;;16.27;;
20179;SDS011;10249;48.900;9.090;2024-03-22T13:19:47;16.50;;;15.60;;
20179;SDS011;10249;48.900;9.090;2024-03-22T13:22:14;17.40;;;16.40;;
20179;SDS011;10249;48.900;9.090;2024-03-22T13:24:43;16.27;;;15.37;;
20179;SDS011;10249;48.900;9.090;2024-03-22T13:27:09;17.40;;;16.40;;
20179;SDS011;10249;48.900;9.090;2024-03-22T13:29:37;16.07;;;15.17;;
20179;SDS011;10249;48.900;9.090;2024-03-22T13:32:04;17.63;;;16.67;;
20179;SDS011;10249;48.900;9.090;2024-03-22T13:34:33;15.97;;;15.07;;
20179;SDS011;10249;48.900;9.090;2024-03-22T13:36:59;16.03;;;15.13;;
20179;SDS011;10249;48.900;9.090;2024-03-22T13:39:26;16.07;;;15.20;;
20179;SDS011;10249;48.900;9.090;2024-03-22T13:41:54;16.33;;;15.43;;
20179;SDS011;10249;48.900;9.090;2024-03-22T13:44:21;17.10;;;16.10;;
20179;SDS011;10249;48.900;9.090;2024-03-22T13:46:48;16.70;;;15.80;;
20179;SDS011;10249;48.900;9.090;2024-03-22T13:49:16;16.67;;;15.77;;
20179;SDS011;10249;48.900;9.090;2024-03-22T13:51:44;16.80;;;15.83;;
20179;SDS011;10249;48.900;9.090;2024-03-22T13:54:11;17.00;;;16.00;;
20179;SDS011;10249;48.900;9.090;2024-03-22T13:56:37;17.00;;;16.10;;
20179;SDS011;10249;48.900;9.090;2024-03-22T13:59:04;16.90;;;15.90;;
20179;SDS011;10249;48.900;9.090;2024-03-22T14:01:30;17.00;;;16.00;;
20179;SDS011;10249;48.900;9.090;2024-03-22T14:03:57;16.73;;;15.83;;
20179;SDS011;10249;48.900;9.090;2024-03-22T14:06:24;17.00;;;16.10;;
20179;SDS011;10249;48.900;9.090;2024-03-22T14:08:52;16.60;;;15.70;;
20179;SDS011;10249;48.900;9.090;2024-03-22T14:11:25;17.07;;;16.17;;
20179;SDS011;10249;48.900;9.090;2024-03-22T14:13:53;17.50;;;16.60;;
20179;SDS011;10249;48.900;9.090;2024-03-22T14:16:19;17.03;;;16.07;;
20179;SDS011;10249;48.900;9.090;2024-03-22T14:18:46;17.47;;;16.47;;
20179;SDS011;10249;48.900;9.090;2024-03-22T14:21:13;16.60;;;15.70;;
20179;SDS011;10249;48.900;9.090;2024-03-22T14:23:44;16.90;;;15.90;;
20179;SDS011;10249;48.900;9.090;2024-03-22T14:26:12;17.17;;;16.17;;
20179;SDS011;10249;48.900;9.090;2024-03-22T14:28:39;16.80;;;15.73;;
20179;SDS011;10249;48.900;9.090;2024-03-22T14:31:05;16.47;;;15.57;;
20179;SDS011;10249;48.900;9.090;2024-03-22T14:33:34;16.77;;;15.87;;
20179;SDS011;10249;48.900;9.090;2024-03-22T14:36:01;16.60;;;15.70;;